Time;durP1;ratioP1;P1;durP2;ratioP2;P2;SDS_P1;SDS_P2;PMS_P1;PMS_P2;Temp;Humidity;BMP_temperature;BMP_pressure;BME280_temperature;BME280_humidity;BME280_pressure;Samples;Min_cycle;Max_cycle;Signal;HPM_P1;HPM_P2
2023/05/31 00:01:08;;;;;;;12.38;4.47;;;10.70;99.90;;;;;;4916964;29;20044;-86
2023/05/31 00:03:35;;;;;;;13.07;4.57;;;9.40;99.90;;;;;;4917576;29;20084;-86
2023/05/31 00:06:01;;;;;;;11.20;4.30;;;9.40;99.90;;;;;;4917659;29;20497;-86
2023/05/31 00:08:26;;;;;;;11.23;4.70;;;9.40;99.90;;;;;;4917372;29;20055;-86
2023/05/31 00:10:52;;;;;;;11.45;4.47;;;9.50;99.90;;;;;;4923273;29;20043;-86
2023/05/31 00:13:18;;;;;;;11.48;4.85;;;9.50;99.90;;;;;;4917822;29;20135;-86
2023/05/31 00:15:43;;;;;;;13.95;5.63;;;9.50;99.90;;;;;;4917904;29;20075;-86
2023/05/31 00:18:09;;;;;;;13.23;5.10;;;9.50;99.90;;;;;;4918472;29;20048;-86
2023/05/31 00:20:34;;;;;;;13.73;5.55;;;9.50;99.90;;;;;;4917189;29;20056;-86
2023/05/31 00:23:00;;;;;;;13.65;4.88;;;9.40;99.90;;;;;;4916226;29;20041;-86
2023/05/31 00:25:26;;;;;;;12.43;5.22;;;10.00;99.90;;;;;;4916885;29;20123;-86
2023/05/31 00:27:51;;;;;;;12.32;5.50;;;9.80;99.90;;;;;;4918404;29;20040;-86
2023/05/31 00:30:17;;;;;;;13.23;5.22;;;9.40;99.90;;;;;;4916338;29;20076;-86
2023/05/31 00:32:42;;;;;;;11.05;5.05;;;9.40;99.90;;;;;;4918323;29;20040;-86
2023/05/31 00:35:08;;;;;;;12.82;5.20;;;9.30;99.90;;;;;;4916932;29;20467;-86
2023/05/31 00:37:37;;;;;;;13.25;5.53;;;10.00;99.90;;;;;;4917158;29;20056;-86
2023/05/31 00:40:06;;;;;;;11.93;5.60;;;9.60;99.90;;;;;;4916862;29;20052;-86
2023/05/31 00:42:32;;;;;;;15.45;5.97;;;9.30;99.90;;;;;;4918291;29;20036;-86
2023/05/31 00:44:58;;;;;;;13.73;5.95;;;9.30;99.90;;;;;;4917583;29;20500;-85
2023/05/31 00:47:25;;;;;;;13.93;5.57;;;9.30;99.90;;;;;;4917665;29;20048;-86
2023/05/31 00:49:52;;;;;;;12.93;5.22;;;9.30;99.90;;;;;;4917759;29;20516;-86
2023/05/31 00:52:18;;;;;;;14.70;5.70;;;9.30;99.90;;;;;;4915719;29;20072;-85
2023/05/31 00:54:44;;;;;;;13.70;6.15;;;9.20;99.90;;;;;;4916151;29;20409;-86
2023/05/31 00:57:10;;;;;;;14.15;5.85;;;9.20;99.90;;;;;;4916328;29;20056;-86
2023/05/31 00:59:36;;;;;;;14.35;6.07;;;9.20;99.90;;;;;;4915991;29;20060;-86
2023/05/31 01:02:03;;;;;;;15.95;6.40;;;9.20;99.90;;;;;;4916629;29;20063;-86
2023/05/31 01:04:30;;;;;;;12.85;5.45;;;9.20;99.90;;;;;;4915573;29;20092;-86
2023/05/31 01:06:56;;;;;;;13.10;5.60;;;10.00;99.90;;;;;;4916539;29;20139;-86
2023/05/31 01:09:22;;;;;;;14.80;6.50;;;9.20;99.90;;;;;;4916114;29;20188;-86
2023/05/31 01:12:02;;;;;;;15.85;5.93;;;9.20;99.90;;;;;;4916640;29;20044;-86
2023/05/31 01:15:07;;;;;;;14.35;5.63;;;9.20;99.90;;;;;;4916309;29;20036;-86
2023/05/31 01:18:00;;;;;;;14.90;6.05;;;9.20;99.90;;;;;;4896304;29;20053;-85
2023/05/31 01:20:34;;;;;;;13.25;5.53;;;9.20;99.90;;;;;;4915358;29;20052;-86
2023/05/31 01:23:39;;;;;;;14.50;6.00;;;9.10;99.90;;;;;;4917567;29;20044;-86
2023/05/31 01:26:30;;;;;;;14.90;6.65;;;9.10;99.90;;;;;;4915635;29;20074;-86
2023/05/31 01:29:07;;;;;;;15.50;6.18;;;9.10;99.90;;;;;;4917425;29;20056;-86
2023/05/31 01:31:36;;;;;;;13.95;5.80;;;9.10;99.90;;;;;;4917124;29;20083;-86
2023/05/31 01:34:04;;;;;;;13.82;6.28;;;9.80;99.90;;;;;;4915372;29;20388;-86
2023/05/31 01:36:30;;;;;;;15.80;6.07;;;9.00;99.90;;;;;;4916997;29;20148;-86
2023/05/31 01:38:57;;;;;;;15.25;5.38;;;9.00;99.90;;;;;;4917200;29;20076;-87
2023/05/31 01:41:26;;;;;;;15.25;5.88;;;9.00;99.90;;;;;;4915114;29;20134;-85
2023/05/31 01:43:53;;;;;;;13.85;5.68;;;9.00;99.90;;;;;;4917067;29;20408;-86
2023/05/31 01:46:20;;;;;;;14.27;5.97;;;9.00;99.90;;;;;;4916885;29;20109;-86
2023/05/31 01:48:47;;;;;;;16.85;6.40;;;9.00;99.90;;;;;;4916434;29;20075;-86
2023/05/31 01:51:14;;;;;;;15.75;6.05;;;8.90;99.90;;;;;;4916768;29;20044;-86
2023/05/31 01:53:43;;;;;;;17.17;6.05;;;8.90;99.90;;;;;;4916133;29;20520;-86
2023/05/31 01:56:10;;;;;;;15.48;5.70;;;9.40;99.90;;;;;;4915011;29;20072;-86
2023/05/31 01:58:38;;;;;;;15.38;6.18;;;9.20;99.90;;;;;;4914961;29;20048;-86
2023/05/31 02:01:05;;;;;;;16.42;5.95;;;8.90;99.90;;;;;;4915849;29;20633;-85
2023/05/31 02:03:31;;;;;;;13.15;5.80;;;8.90;99.90;;;;;;4916964;29;20040;-86
2023/05/31 02:06:00;;;;;;;17.13;6.03;;;8.80;99.90;;;;;;4916665;29;20039;-86
2023/05/31 02:08:27;;;;;;;15.10;5.93;;;8.90;99.90;;;;;;4915588;29;20059;-86
2023/05/31 02:10:56;;;;;;;15.98;5.82;;;9.70;99.90;;;;;;4916888;29;20062;-86
2023/05/31 02:13:28;;;;;;;16.30;5.43;;;9.00;99.90;;;;;;4916471;29;20044;-86
2023/05/31 02:15:55;;;;;;;18.05;6.00;;;8.80;99.90;;;;;;4914739;29;20087;-86
2023/05/31 02:18:21;;;;;;;14.80;5.85;;;8.80;99.90;;;;;;4915346;29;20489;-86
2023/05/31 02:20:47;;;;;;;19.40;6.70;;;8.80;99.90;;;;;;4916782;29;20040;-86
2023/05/31 02:23:13;;;;;;;18.67;6.47;;;8.80;99.90;;;;;;4915661;29;20036;-86
2023/05/31 02:25:40;;;;;;;18.45;6.78;;;8.80;99.90;;;;;;4915242;29;20104;-86
2023/05/31 02:28:05;;;;;;;15.57;5.72;;;8.70;99.90;;;;;;4915294;29;20059;-86
2023/05/31 02:30:32;;;;;;;17.10;6.45;;;8.70;99.90;;;;;;4916075;29;20044;-86
2023/05/31 02:32:59;;;;;;;19.67;6.78;;;8.70;99.90;;;;;;4916671;29;20075;-86
2023/05/31 02:35:25;;;;;;;18.10;6.72;;;8.70;99.90;;;;;;4916443;29;20324;-85
2023/05/31 02:37:51;;;;;;;19.70;6.50;;;8.70;99.90;;;;;;4914524;29;20040;-85
2023/05/31 02:40:16;;;;;;;18.52;6.40;;;8.70;99.90;;;;;;4915740;29;20070;-85
2023/05/31 02:42:43;;;;;;;17.48;6.38;;;8.60;99.90;;;;;;4916234;29;20043;-86
2023/05/31 02:45:10;;;;;;;18.20;6.03;;;8.60;99.90;;;;;;4914020;29;20052;-86
2023/05/31 02:47:37;;;;;;;16.63;6.13;;;8.60;99.90;;;;;;4915362;29;20040;-86
2023/05/31 02:50:08;;;;;;;18.45;6.60;;;8.60;99.90;;;;;;4914810;29;20055;-86
2023/05/31 02:52:34;;;;;;;17.52;6.32;;;8.60;99.90;;;;;;4928615;29;20044;-86
2023/05/31 02:55:00;;;;;;;17.63;6.90;;;8.60;99.90;;;;;;4938994;29;20079;-86
2023/05/31 02:57:25;;;;;;;20.90;6.75;;;8.60;99.90;;;;;;4934838;29;20489;-85
2023/05/31 02:59:55;;;;;;;19.77;7.18;;;8.50;99.90;;;;;;4932170;29;20115;-86
2023/05/31 03:02:21;;;;;;;18.77;6.55;;;8.50;99.90;;;;;;4919585;29;20061;-85
2023/05/31 03:04:48;;;;;;;18.45;7.03;;;8.50;99.90;;;;;;4916625;29;20059;-85
2023/05/31 03:07:14;;;;;;;19.65;7.20;;;8.50;99.90;;;;;;4914855;29;20135;-85
2023/05/31 03:09:39;;;;;;;22.02;7.70;;;8.40;99.90;;;;;;4916798;29;20449;-86
2023/05/31 03:12:06;;;;;;;22.27;8.73;;;8.40;99.90;;;;;;4919146;29;20127;-85
2023/05/31 03:14:32;;;;;;;20.25;6.85;;;8.40;99.90;;;;;;4918252;29;20448;-86
2023/05/31 03:16:57;;;;;;;19.23;7.38;;;8.40;99.90;;;;;;4919781;29;20103;-85
2023/05/31 03:19:23;;;;;;;20.10;7.57;;;8.40;99.90;;;;;;4917460;29;20048;-85
2023/05/31 03:21:49;;;;;;;20.38;7.65;;;8.40;99.90;;;;;;4918511;29;20040;-86
2023/05/31 03:24:14;;;;;;;21.00;8.27;;;9.30;99.90;;;;;;4919015;29;20506;-86
2023/05/31 03:26:40;;;;;;;21.77;7.35;;;8.40;99.90;;;;;;4917460;29;20044;-85
2023/05/31 03:29:06;;;;;;;19.05;7.50;;;8.40;99.90;;;;;;4919221;29;20051;-86
2023/05/31 03:31:32;;;;;;;18.20;7.03;;;8.30;99.90;;;;;;4919459;29;20084;-86
2023/05/31 03:33:58;;;;;;;20.27;6.85;;;8.40;99.90;;;;;;4917511;29;20063;-86
2023/05/31 03:36:23;;;;;;;22.88;7.75;;;8.40;99.90;;;;;;4918999;29;20051;-86
2023/05/31 03:38:49;;;;;;;21.75;7.15;;;8.40;99.90;;;;;;4919213;29;20075;-86
2023/05/31 03:41:15;;;;;;;18.42;6.75;;;8.60;99.90;;;;;;4916967;29;20052;-86
2023/05/31 03:43:40;;;;;;;18.95;7.15;;;8.40;99.90;;;;;;4919285;29;20123;-85
2023/05/31 03:46:06;;;;;;;24.50;7.32;;;8.40;99.90;;;;;;4917724;29;20115;-86
2023/05/31 03:48:32;;;;;;;20.70;7.45;;;8.40;99.90;;;;;;4917338;29;20079;-86
2023/05/31 03:50:57;;;;;;;20.00;7.47;;;8.40;99.90;;;;;;4918007;29;20082;-86
2023/05/31 03:53:23;;;;;;;21.23;7.43;;;8.40;99.90;;;;;;4916611;29;20052;-86
2023/05/31 03:55:49;;;;;;;21.80;7.80;;;8.40;99.90;;;;;;4918793;29;20052;-86
2023/05/31 03:58:15;;;;;;;20.75;7.32;;;8.40;99.90;;;;;;4917222;29;20119;-86
2023/05/31 04:00:41;;;;;;;22.30;7.88;;;8.40;99.90;;;;;;4917159;29;20124;-86
2023/05/31 04:03:11;;;;;;;21.92;7.43;;;8.50;99.90;;;;;;4918377;29;20046;-87
2023/05/31 04:05:38;;;;;;;22.45;7.13;;;8.50;99.90;;;;;;4915808;29;20044;-86
2023/05/31 04:08:04;;;;;;;23.42;7.32;;;8.50;99.90;;;;;;4915034;29;20054;-86
2023/05/31 04:10:30;;;;;;;21.75;7.20;;;8.50;99.90;;;;;;4917074;29;20059;-87
2023/05/31 04:12:56;;;;;;;23.27;7.75;;;9.00;99.90;;;;;;4918474;29;20456;-86
2023/05/31 04:15:22;;;;;;;19.40;7.13;;;8.50;99.90;;;;;;4916792;29;20048;-87
2023/05/31 04:17:47;;;;;;;25.08;7.55;;;8.60;99.90;;;;;;4918518;29;20126;-86
2023/05/31 04:20:13;;;;;;;21.60;7.03;;;8.60;99.90;;;;;;4916886;29;20091;-86
2023/05/31 04:22:38;;;;;;;21.80;7.35;;;8.70;99.90;;;;;;4916949;29;20040;-86
2023/05/31 04:25:08;;;;;;;19.45;7.13;;;8.70;99.90;;;;;;4917130;29;20048;-86
2023/05/31 04:27:38;;;;;;;19.65;7.32;;;8.80;99.90;;;;;;4918305;29;20238;-86
2023/05/31 04:30:05;;;;;;;20.42;6.93;;;8.80;99.90;;;;;;4916176;29;20040;-86
2023/05/31 04:32:34;;;;;;;22.15;7.40;;;8.80;99.90;;;;;;4916875;29;20523;-86
2023/05/31 04:35:04;;;;;;;18.48;6.78;;;9.50;99.90;;;;;;4918291;29;20048;-86
2023/05/31 04:37:30;;;;;;;22.60;7.78;;;8.90;99.90;;;;;;4917354;29;20112;-86
2023/05/31 04:39:56;;;;;;;20.95;7.10;;;8.90;99.90;;;;;;4916708;29;20096;-86
2023/05/31 04:42:24;;;;;;;19.55;7.07;;;9.00;99.90;;;;;;4917885;29;20044;-86
2023/05/31 04:45:01;;;;;;;19.13;7.28;;;9.10;99.90;;;;;;4917268;29;20378;-85
2023/05/31 04:47:46;;;;;;;19.05;7.47;;;9.10;99.90;;;;;;4917903;29;20044;-86
2023/05/31 04:50:12;;;;;;;22.30;7.88;;;9.20;99.90;;;;;;4917269;29;20056;-86
2023/05/31 04:52:39;;;;;;;24.55;8.27;;;9.20;99.90;;;;;;4917581;29;20127;-86
2023/05/31 04:55:06;;;;;;;20.08;7.57;;;9.30;99.90;;;;;;4917711;29;20063;-86
2023/05/31 04:57:32;;;;;;;22.38;7.97;;;9.40;99.90;;;;;;4915893;29;20560;-86
2023/05/31 04:59:58;;;;;;;19.25;7.75;;;10.30;99.90;;;;;;4916398;29;20051;-85
2023/05/31 05:02:24;;;;;;;18.42;8.07;;;10.20;99.90;;;;;;4916011;29;20049;-86
2023/05/31 05:04:50;;;;;;;22.05;8.32;;;10.10;99.90;;;;;;4915602;29;20088;-86
2023/05/31 05:07:16;;;;;;;20.10;8.13;;;9.70;99.90;;;;;;4916155;29;20055;-86
2023/05/31 05:09:42;;;;;;;21.45;7.72;;;10.10;99.90;;;;;;4916165;29;20135;-86
2023/05/31 05:12:09;;;;;;;23.20;8.73;;;9.90;99.90;;;;;;4915373;29;20044;-86
2023/05/31 05:14:34;;;;;;;19.02;7.97;;;10.00;99.90;;;;;;4917437;29;20084;-86
2023/05/31 05:17:00;;;;;;;21.90;8.63;;;10.00;99.90;;;;;;4916129;29;20083;-86
2023/05/31 05:19:26;;;;;;;19.23;8.05;;;10.10;99.90;;;;;;4916316;29;20075;-86
2023/05/31 05:21:52;;;;;;;20.10;7.63;;;10.20;99.90;;;;;;4917495;29;20048;-86
2023/05/31 05:24:17;;;;;;;19.60;7.65;;;10.30;99.90;;;;;;4915804;29;20048;-86
2023/05/31 05:26:44;;;;;;;19.85;8.15;;;10.30;99.90;;;;;;4916772;29;20040;-86
2023/05/31 05:29:10;;;;;;;19.52;8.40;;;10.80;99.90;;;;;;4916828;29;20063;-85
2023/05/31 05:31:36;;;;;;;21.63;8.90;;;10.50;99.90;;;;;;4917309;29;20119;-85
2023/05/31 05:34:01;;;;;;;19.00;8.20;;;10.60;99.90;;;;;;4914214;29;20588;-86
2023/05/31 05:36:27;;;;;;;18.88;8.18;;;11.20;99.90;;;;;;4915722;29;20048;-87
2023/05/31 05:38:53;;;;;;;21.42;8.40;;;10.90;99.90;;;;;;4916078;29;20048;-87
2023/05/31 05:41:18;;;;;;;22.52;9.27;;;10.80;99.90;;;;;;4916741;29;20047;-86
2023/05/31 05:43:44;;;;;;;20.63;8.07;;;11.70;99.90;;;;;;4916998;29;20044;-84
2023/05/31 05:46:09;;;;;;;21.45;9.13;;;11.00;99.90;;;;;;4915950;29;20204;-85
2023/05/31 05:48:35;;;;;;;18.48;8.07;;;11.10;99.90;;;;;;4916883;29;20040;-85
2023/05/31 05:51:01;;;;;;;24.30;9.07;;;11.70;99.90;;;;;;4916811;29;20051;-87
2023/05/31 05:53:26;;;;;;;20.77;9.45;;;11.20;99.90;;;;;;4915752;29;20054;-85
2023/05/31 05:55:53;;;;;;;18.75;8.32;;;11.30;99.90;;;;;;4934368;29;20040;-85
2023/05/31 05:58:19;;;;;;;18.85;8.45;;;11.40;99.90;;;;;;4936348;29;20051;-85
2023/05/31 06:00:46;;;;;;;19.75;8.52;;;11.60;99.90;;;;;;4921826;29;20042;-84
2023/05/31 06:03:15;;;;;;;21.20;8.93;;;12.50;99.90;;;;;;4917948;29;20059;-85
2023/05/31 06:05:44;;;;;;;18.17;8.18;;;11.80;99.90;;;;;;4915996;29;20096;-85
2023/05/31 06:08:10;;;;;;;17.02;7.63;;;11.90;99.90;;;;;;4914864;29;20378;-85
2023/05/31 06:10:40;;;;;;;19.27;8.15;;;12.00;99.90;;;;;;4922566;29;20108;-84
2023/05/31 06:13:06;;;;;;;18.88;8.32;;;12.10;99.90;;;;;;4918113;29;20500;-85
2023/05/31 06:15:32;;;;;;;17.15;7.85;;;12.20;99.90;;;;;;4914631;29;20586;-85
2023/05/31 06:18:00;;;;;;;18.42;7.40;;;12.20;99.90;;;;;;4915712;29;20052;-86
2023/05/31 06:20:26;;;;;;;17.00;7.68;;;13.30;99.90;;;;;;4916427;29;20060;-85
2023/05/31 06:22:52;;;;;;;17.88;7.68;;;12.40;99.90;;;;;;4914490;29;20509;-85
2023/05/31 06:25:19;;;;;;;15.70;6.97;;;12.50;99.90;;;;;;4914934;29;20052;-85
2023/05/31 06:27:45;;;;;;;19.85;8.07;;;13.10;99.90;;;;;;4915311;29;20052;-85
2023/05/31 06:30:12;;;;;;;16.70;7.32;;;13.40;99.90;;;;;;4915679;29;20055;-88
2023/05/31 06:32:38;;;;;;;17.13;7.25;;;12.80;99.90;;;;;;4916360;29;20048;-85
2023/05/31 06:35:04;;;;;;;16.33;7.13;;;13.20;99.90;;;;;;5040168;23;20409;-85
2023/05/31 06:37:31;;;;;;;18.00;7.50;;;13.00;99.90;;;;;;4896228;29;20141;-85
2023/05/31 06:39:59;;;;;;;16.88;6.75;;;13.10;99.90;;;;;;4898009;29;20063;-86
2023/05/31 06:42:25;;;;;;;16.50;7.32;;;13.20;99.90;;;;;;4895635;29;20394;-85
2023/05/31 06:44:51;;;;;;;20.08;6.60;;;13.50;99.90;;;;;;4897586;29;20060;-85
2023/05/31 06:47:16;;;;;;;17.48;7.35;;;13.40;99.90;;;;;;4901227;29;20049;-85
2023/05/31 06:49:42;;;;;;;16.75;6.85;;;13.50;99.90;;;;;;4899596;29;20055;-86
2023/05/31 06:52:10;;;;;;;19.75;7.00;;;14.20;99.90;;;;;;4899508;29;20056;-85
2023/05/31 06:54:37;;;;;;;16.33;6.38;;;13.60;99.90;;;;;;4900976;29;20581;-85
2023/05/31 06:57:03;;;;;;;18.48;7.10;;;13.70;99.90;;;;;;4900638;29;20052;-86
2023/05/31 06:59:29;;;;;;;15.45;7.15;;;13.90;99.90;;;;;;4899997;29;20080;-85
2023/05/31 07:01:58;;;;;;;15.25;6.85;;;14.30;99.90;;;;;;4901273;29;20127;-81
2023/05/31 07:04:23;;;;;;;17.45;6.63;;;14.20;99.90;;;;;;4900122;29;20049;-81
2023/05/31 07:06:49;;;;;;;15.60;6.78;;;14.40;99.90;;;;;;4899716;29;20056;-81
2023/05/31 07:09:15;;;;;;;14.73;6.80;;;14.60;99.90;;;;;;4899103;29;20048;-81
2023/05/31 07:11:41;;;;;;;16.02;6.30;;;14.70;99.90;;;;;;4898884;29;20414;-81
2023/05/31 07:14:07;;;;;;;15.70;6.93;;;15.60;99.90;;;;;;4900524;29;20040;-82
2023/05/31 07:16:33;;;;;;;16.65;6.88;;;15.00;99.90;;;;;;4900770;29;20432;-81
2023/05/31 07:18:59;;;;;;;14.48;6.40;;;15.20;99.90;;;;;;4898962;29;20066;-81
2023/05/31 07:21:24;;;;;;;15.07;6.00;;;15.40;99.90;;;;;;4898911;29;20076;-81
2023/05/31 07:23:50;;;;;;;16.30;6.20;;;15.30;99.90;;;;;;4899044;29;20080;-82
2023/05/31 07:26:16;;;;;;;14.65;5.95;;;15.40;99.90;;;;;;4899509;29;20405;-82
2023/05/31 07:28:45;;;;;;;15.63;7.05;;;15.50;99.90;;;;;;4900730;29;20128;-82
2023/05/31 07:31:15;;;;;;;15.15;6.10;;;15.60;99.90;;;;;;4899193;29;20063;-82
2023/05/31 07:33:41;;;;;;;15.45;5.95;;;15.70;99.90;;;;;;4900135;29;20059;-82
2023/05/31 07:36:10;;;;;;;12.30;5.70;;;16.10;99.90;;;;;;4898655;29;20052;-81
2023/05/31 07:38:36;;;;;;;11.88;5.97;;;15.90;99.90;;;;;;4899527;29;20053;-81
2023/05/31 07:41:01;;;;;;;13.90;5.72;;;16.10;99.90;;;;;;4900202;29;20112;-81
2023/05/31 07:43:29;;;;;;;14.75;5.53;;;17.00;99.90;;;;;;4900164;29;20052;-82
2023/05/31 07:45:56;;;;;;;13.63;5.68;;;16.30;99.90;;;;;;4898392;29;20485;-81
2023/05/31 07:48:22;;;;;;;12.50;5.57;;;16.40;99.90;;;;;;4898701;29;20493;-81
2023/05/31 07:50:51;;;;;;;12.40;5.45;;;16.40;99.90;;;;;;4899965;29;20084;-81
2023/05/31 07:53:17;;;;;;;14.13;5.65;;;16.60;99.90;;;;;;4897380;29;20053;-82
2023/05/31 07:55:43;;;;;;;14.48;5.63;;;16.70;99.90;;;;;;4898434;29;20059;-81
2023/05/31 07:58:11;;;;;;;12.07;4.82;;;17.00;99.90;;;;;;4899466;29;20048;-81
2023/05/31 08:00:37;;;;;;;12.45;5.43;;;17.10;99.90;;;;;;4898967;29;20061;-82
2023/05/31 08:03:03;;;;;;;11.40;5.45;;;17.60;99.90;;;;;;4899677;29;20501;-81
2023/05/31 08:05:29;;;;;;;12.50;5.00;;;17.20;99.90;;;;;;4899273;29;20079;-81
2023/05/31 08:07:54;;;;;;;12.23;6.00;;;17.30;99.90;;;;;;4899039;29;20157;-81
2023/05/31 08:10:20;;;;;;;14.45;5.80;;;17.40;99.90;;;;;;4898227;29;20044;-82
2023/05/31 08:12:46;;;;;;;11.50;5.25;;;17.50;99.90;;;;;;4898435;29;20050;-81
2023/05/31 08:15:11;;;;;;;14.15;5.03;;;17.70;99.90;;;;;;4897460;29;20120;-81
2023/05/31 08:17:37;;;;;;;12.88;5.00;;;17.80;99.90;;;;;;4899934;29;20072;-82
2023/05/31 08:20:06;;;;;;;12.43;4.78;;;17.90;99.90;;;;;;4898473;29;20048;-81
2023/05/31 08:22:32;;;;;;;11.38;5.63;;;18.10;99.90;;;;;;4899170;29;20048;-82
2023/05/31 08:24:59;;;;;;;13.55;5.75;;;18.20;99.90;;;;;;4899346;29;20496;-82
2023/05/31 08:27:24;;;;;;;13.18;4.45;;;18.30;99.90;;;;;;4899493;29;20373;-82
2023/05/31 08:29:50;;;;;;;11.82;4.82;;;18.40;99.90;;;;;;4897375;29;20131;-82
2023/05/31 08:32:16;;;;;;;13.52;4.93;;;18.50;99.90;;;;;;4899305;29;20473;-82
2023/05/31 08:34:43;;;;;;;11.93;4.68;;;18.70;99.90;;;;;;4898517;29;20040;-82
2023/05/31 08:37:09;;;;;;;13.65;4.63;;;18.80;99.90;;;;;;4899215;29;20076;-82
2023/05/31 08:39:35;;;;;;;12.38;4.60;;;18.90;99.90;;;;;;4898173;29;20071;-82
2023/05/31 08:42:05;;;;;;;12.10;4.35;;;19.00;99.90;;;;;;4898723;29;20497;-82
2023/05/31 08:44:31;;;;;;;11.30;4.20;;;19.20;99.90;;;;;;4899359;29;20080;-81
2023/05/31 08:47:01;;;;;;;10.38;4.28;;;19.80;99.90;;;;;;4898987;29;20048;-82
2023/05/31 08:49:28;;;;;;;12.82;5.07;;;19.30;99.90;;;;;;4897847;29;20056;-81
2023/05/31 08:51:54;;;;;;;12.73;5.03;;;19.60;99.90;;;;;;4898039;29;20045;-81
2023/05/31 08:54:21;;;;;;;13.23;4.97;;;19.40;99.90;;;;;;4897465;29;20041;-82
2023/05/31 08:56:48;;;;;;;13.48;4.78;;;19.60;99.90;;;;;;4912823;29;20048;-81
2023/05/31 08:59:16;;;;;;;10.90;4.13;;;19.70;99.90;;;;;;4918882;29;20048;-82
2023/05/31 09:01:43;;;;;;;11.65;4.28;;;19.80;99.90;;;;;;4899428;29;20041;-82
2023/05/31 09:04:09;;;;;;;12.65;3.53;;;19.80;99.90;;;;;;4898692;29;20056;-81
2023/05/31 09:06:36;;;;;;;9.88;3.70;;;19.80;99.90;;;;;;4899172;29;20138;-82
2023/05/31 09:09:02;;;;;;;10.27;3.80;;;19.80;99.90;;;;;;4898759;29;20092;-82
2023/05/31 09:11:28;;;;;;;11.45;4.22;;;19.90;99.90;;;;;;4897910;29;20077;-81
2023/05/31 09:13:54;;;;;;;9.60;3.67;;;19.90;99.90;;;;;;4898674;29;20045;-82
2023/05/31 09:16:22;;;;;;;9.32;3.50;;;20.00;99.90;;;;;;4897027;29;20047;-82
2023/05/31 09:18:48;;;;;;;9.85;3.85;;;20.20;99.90;;;;;;4897716;29;20049;-82
2023/05/31 09:21:14;;;;;;;10.40;4.07;;;20.30;99.90;;;;;;4898176;29;20045;-82
2023/05/31 09:23:56;;;;;;;10.63;4.35;;;20.60;99.90;;;;;;4898210;29;20446;-82
2023/05/31 09:26:23;;;;;;;10.82;4.00;;;20.80;99.90;;;;;;4898175;29;20052;-81
2023/05/31 09:28:50;;;;;;;10.70;4.15;;;20.60;99.90;;;;;;4898146;29;20040;-82
2023/05/31 09:31:19;;;;;;;11.55;3.85;;;20.70;99.90;;;;;;4895944;29;20084;-81
2023/05/31 09:33:56;;;;;;;11.73;3.88;;;21.00;99.90;;;;;;4898304;29;20044;-82
2023/05/31 09:36:25;;;;;;;10.88;4.28;;;21.10;99.90;;;;;;4897845;29;20110;-82
2023/05/31 09:39:04;;;;;;;11.02;4.32;;;21.30;99.90;;;;;;4896126;29;20493;-82
2023/05/31 09:41:31;;;;;;;10.73;4.18;;;21.50;99.90;;;;;;4896594;29;20048;-82
2023/05/31 09:43:57;;;;;;;10.40;4.10;;;21.50;99.90;;;;;;4897986;29;20109;-82
2023/05/31 09:46:24;;;;;;;10.02;3.90;;;21.70;99.90;;;;;;4896582;29;20052;-82
2023/05/31 09:49:08;;;;;;;10.35;4.45;;;21.80;99.90;;;;;;4898014;29;20080;-82
2023/05/31 09:51:35;;;;;;;10.18;4.22;;;21.80;99.90;;;;;;4896766;29;20117;-82
2023/05/31 09:54:07;;;;;;;9.80;4.00;;;21.90;99.90;;;;;;4896139;29;20048;-82
2023/05/31 09:56:36;;;;;;;13.20;3.78;;;21.80;99.90;;;;;;4897045;29;20092;-82
2023/05/31 09:59:03;;;;;;;11.88;3.75;;;22.40;99.90;;;;;;4895864;29;20044;-82
2023/05/31 10:01:30;;;;;;;10.88;3.83;;;22.10;99.90;;;;;;4897784;29;20087;-82
2023/05/31 10:03:59;;;;;;;10.13;4.00;;;22.20;99.90;;;;;;4896471;29;20081;-82
2023/05/31 10:06:27;;;;;;;11.25;3.95;;;22.40;99.90;;;;;;4896929;29;20052;-82
2023/05/31 10:08:53;;;;;;;11.13;4.15;;;22.50;99.90;;;;;;4896526;29;20053;-82
2023/05/31 10:11:30;;;;;;;12.27;4.55;;;22.50;99.70;;;;;;4897294;29;20045;-82
2023/05/31 10:14:01;;;;;;;10.73;4.35;;;22.30;98.70;;;;;;4896911;29;20107;-82
2023/05/31 10:16:32;;;;;;;11.77;4.03;;;22.50;99.60;;;;;;4897660;29;20056;-82
2023/05/31 10:19:04;;;;;;;11.65;3.92;;;22.50;99.90;;;;;;4898575;29;20049;-82
2023/05/31 10:21:30;;;;;;;9.77;3.63;;;22.70;99.60;;;;;;4901800;29;20096;-82
2023/05/31 10:24:05;;;;;;;10.77;3.85;;;22.70;98.70;;;;;;5034349;23;20503;-82
2023/05/31 10:27:00;;;;;;;9.70;3.80;;;22.80;99.10;;;;;;4918287;29;20405;-82
2023/05/31 10:30:03;;;;;;;13.23;4.38;;;22.90;98.10;;;;;;4903161;29;20095;-82
2023/05/31 10:32:47;;;;;;;12.25;4.65;;;23.10;99.10;;;;;;4902374;29;20044;-81
2023/05/31 10:35:13;;;;;;;11.40;4.55;;;23.00;98.50;;;;;;4901670;29;20049;-81
2023/05/31 10:38:01;;;;;;;11.95;4.60;;;22.90;98.70;;;;;;4902437;29;20408;-82
2023/05/31 10:41:04;;;;;;;10.23;4.13;;;23.00;98.10;;;;;;4902314;29;20048;-81
2023/05/31 10:43:34;;;;;;;10.52;4.20;;;23.20;98.10;;;;;;4901840;29;20048;-82
2023/05/31 10:46:19;;;;;;;10.75;4.40;;;23.30;98.60;;;;;;4903540;29;20103;-82
2023/05/31 10:48:58;;;;;;;11.60;3.75;;;23.50;98.00;;;;;;4903178;29;20098;-81
2023/05/31 10:51:45;;;;;;;13.70;4.13;;;23.70;98.10;;;;;;4902334;29;20055;-82
2023/05/31 10:56:53;;;;;;;11.57;4.13;;;23.90;97.60;;;;;;5521597;23;20440;-83
2023/05/31 10:59:19;;;;;;;10.90;4.20;;;23.90;97.40;;;;;;4902159;29;20123;-82
2023/05/31 11:01:46;;;;;;;12.15;4.13;;;23.90;97.60;;;;;;4902474;29;20438;-82
2023/05/31 11:04:24;;;;;;;10.52;3.80;;;24.00;97.40;;;;;;4901523;29;20044;-82
2023/05/31 11:07:14;;;;;;;11.75;4.22;;;24.30;97.40;;;;;;4902252;29;20044;-82
2023/05/31 11:09:41;;;;;;;13.13;4.43;;;24.50;96.40;;;;;;4903080;29;20084;-82
2023/05/31 11:12:06;;;;;;;10.75;3.70;;;24.50;97.10;;;;;;4901925;29;20135;-82
2023/05/31 11:14:32;;;;;;;9.43;3.75;;;24.70;96.90;;;;;;4903866;29;20131;-81
2023/05/31 11:17:03;;;;;;;11.23;4.95;;;25.00;96.80;;;;;;4901526;29;20128;-82
2023/05/31 11:19:36;;;;;;;12.55;5.05;;;24.90;96.30;;;;;;4903513;29;20112;-81
2023/05/31 11:22:15;;;;;;;12.32;4.50;;;24.60;95.80;;;;;;4903745;29;20049;-81
2023/05/31 11:24:52;;;;;;;11.35;4.05;;;24.30;95.60;;;;;;4901628;29;20045;-81
2023/05/31 11:27:36;;;;;;;10.68;3.95;;;24.20;96.00;;;;;;4902204;29;20374;-81
2023/05/31 11:30:03;;;;;;;;;;;24.30;96.70;;;;;;4904611;29;20045;-81
2023/05/31 11:32:35;;;;;;;11.02;4.10;;;24.30;96.60;;;;;;4899624;29;19924;-81
2023/05/31 11:35:06;;;;;;;12.65;4.78;;;24.40;96.10;;;;;;4900354;29;20135;-81
2023/05/31 11:37:38;;;;;;;9.93;4.78;;;24.30;96.40;;;;;;4898302;29;20041;-81
2023/05/31 11:40:12;;;;;;;11.05;3.95;;;24.40;95.90;;;;;;4898941;29;20076;-81
2023/05/31 11:42:39;;;;;;;12.20;4.00;;;24.40;96.00;;;;;;4899389;29;20045;-81
2023/05/31 11:45:07;;;;;;;11.70;4.45;;;24.50;96.00;;;;;;4899733;29;20052;-82
2023/05/31 11:47:38;;;;;;;11.85;4.72;;;24.60;95.80;;;;;;4898909;29;20041;-82
2023/05/31 11:50:05;;;;;;;13.02;4.55;;;24.70;96.10;;;;;;4899239;29;20056;-82
2023/05/31 11:52:30;;;;;;;10.93;4.13;;;25.00;96.10;;;;;;4898279;29;20075;-82
2023/05/31 11:55:04;;;;;;;10.13;4.10;;;25.40;96.00;;;;;;4900163;29;20041;-82
2023/05/31 11:57:30;;;;;;;9.52;3.90;;;25.40;95.50;;;;;;4899875;29;20071;-82
2023/05/31 12:00:11;;;;;;;10.32;3.80;;;25.50;95.60;;;;;;4906391;29;20052;-82
2023/05/31 12:02:42;;;;;;;10.82;4.07;;;25.60;94.20;;;;;;4904871;29;20119;-81
2023/05/31 12:05:15;;;;;;;11.90;4.07;;;25.40;95.00;;;;;;4898491;29;20063;-81
2023/05/31 12:07:41;;;;;;;10.20;4.28;;;25.50;95.20;;;;;;4898527;29;20063;-81
2023/05/31 12:10:08;;;;;;;12.70;4.63;;;25.50;95.10;;;;;;4899695;29;20041;-82
2023/05/31 12:12:35;;;;;;;11.63;4.25;;;25.20;95.10;;;;;;4900000;29;20055;-81
2023/05/31 12:15:04;;;;;;;14.25;4.20;;;25.00;95.20;;;;;;4899458;29;20044;-82
2023/05/31 12:17:31;;;;;;;12.32;4.65;;;25.10;95.70;;;;;;4898295;29;20056;-81
2023/05/31 12:19:56;;;;;;;13.38;4.40;;;25.10;95.70;;;;;;4899114;29;20326;-81
2023/05/31 12:22:22;;;;;;;10.50;4.32;;;25.10;95.60;;;;;;4897951;29;20520;-81
2023/05/31 12:24:49;;;;;;;16.00;4.97;;;25.10;95.70;;;;;;4899542;29;20040;-81
2023/05/31 12:27:25;;;;;;;10.65;4.90;;;25.00;95.80;;;;;;4897493;29;20053;-81
2023/05/31 12:30:01;;;;;;;13.07;4.72;;;25.00;96.00;;;;;;4899850;29;20112;-81
2023/05/31 12:32:28;;;;;;;12.25;4.95;;;25.00;95.90;;;;;;4897888;29;20049;-81
2023/05/31 12:35:04;;;;;;;13.15;4.88;;;24.70;96.10;;;;;;4897606;29;20049;-81
2023/05/31 12:37:34;;;;;;;12.65;5.10;;;24.70;96.10;;;;;;4899336;29;20130;-81
2023/05/31 12:40:12;;;;;;;11.45;4.82;;;24.80;96.10;;;;;;4899087;29;20048;-81
2023/05/31 12:42:39;;;;;;;12.52;4.63;;;24.80;96.00;;;;;;4896693;29;20055;-82
2023/05/31 12:45:06;;;;;;;13.13;4.97;;;24.90;96.30;;;;;;4899284;29;20071;-81
2023/05/31 12:47:33;;;;;;;11.60;4.45;;;25.20;96.30;;;;;;4898147;29;20366;-82
2023/05/31 12:50:07;;;;;;;11.77;4.60;;;25.40;96.20;;;;;;4896873;29;20051;-81